createdAt,value
2023-02-02T00:01:01.331Z,100876.72
2023-02-02T00:04:04.489Z,100865.84
2023-02-02T00:07:07.593Z,100868.03
2023-02-02T00:10:11.099Z,100865.56
2023-02-02T00:13:14.583Z,100863.50
2023-02-02T00:16:39.759Z,100871.34
2023-02-02T00:19:42.672Z,100866.69
2023-02-02T00:22:45.484Z,100867.09
2023-02-02T00:25:51.241Z,100872.19
2023-02-02T00:28:54.119Z,100863.09
2023-02-02T00:31:58.646Z,100874.50
2023-02-02T00:35:01.555Z,100874.50
2023-02-02T00:38:04.375Z,100884.28
2023-02-02T00:41:07.517Z,100881.41
2023-02-02T00:44:28.772Z,100886.06
2023-02-02T00:47:31.512Z,100884.53
2023-02-02T00:50:34.671Z,100872.97
2023-02-02T00:53:38.202Z,100875.59
2023-02-02T00:56:41.712Z,100867.50
2023-02-02T00:59:44.515Z,100875.47
2023-02-02T01:02:47.563Z,100880.84
2023-02-02T01:05:52.172Z,100881.25
2023-02-02T01:08:55.083Z,100876.81
2023-02-02T01:11:58.826Z,100865.69
2023-02-02T01:15:02.685Z,100861.72
2023-02-02T01:18:07.345Z,100857.88
2023-02-02T01:21:12.787Z,100853.75
2023-02-02T01:24:15.576Z,100838.06
2023-02-02T01:27:18.685Z,100821.38
2023-02-02T01:30:21.613Z,100815.22
2023-02-02T01:33:25.608Z,100817.41
2023-02-02T01:36:28.388Z,100841.78
2023-02-02T01:39:34.216Z,100829.97
2023-02-02T01:42:37.087Z,100827.38
2023-02-02T01:45:39.885Z,100816.88
2023-02-02T01:48:47.048Z,100815.63
2023-02-02T01:51:59.363Z,100810.56
2023-02-02T01:55:08.836Z,100803.66
2023-02-02T01:58:17.576Z,100804.47
2023-02-02T02:01:20.779Z,100801.63
2023-02-02T02:04:25.447Z,100785.53
2023-02-02T02:07:28.442Z,100780.19
2023-02-02T02:10:31.417Z,100779.53
2023-02-02T02:13:56.708Z,100771.56
2023-02-02T02:17:25.654Z,100772.66
2023-02-02T02:21:09.944Z,100757.22
2023-02-02T02:24:54.339Z,100769.97
2023-02-02T02:28:25.209Z,100750.09
2023-02-02T02:31:53.160Z,100750.38
2023-02-02T02:35:17.320Z,100742.69
2023-02-02T02:38:30.599Z,100753.91
2023-02-02T02:41:37.822Z,100758.72
2023-02-02T02:44:42.100Z,100757.94
2023-02-02T02:47:45.455Z,100760.38
2023-02-02T02:50:48.352Z,100755.25
2023-02-02T02:53:51.151Z,100761.56
2023-02-02T02:57:09.943Z,100769.84
2023-02-02T03:00:35.455Z,100756.88
2023-02-02T03:03:55.433Z,100762.09
2023-02-02T03:07:05.458Z,100769.22
2023-02-02T03:10:12.610Z,100790.34
2023-02-02T03:13:16.995Z,100782.38
2023-02-02T03:16:19.686Z,100778.53
2023-02-02T03:19:22.491Z,100779.59
2023-02-02T03:22:25.519Z,100764.56
2023-02-02T03:25:28.496Z,100772.31
2023-02-02T03:28:32.632Z,100774.09
2023-02-02T03:31:35.481Z,100771.56
2023-02-02T03:34:43.229Z,100782.34
2023-02-02T03:37:46.199Z,100766.22
2023-02-02T03:40:49.050Z,100773.78
2023-02-02T03:43:51.858Z,100787.69
2023-02-02T03:46:55.242Z,100767.22
2023-02-02T03:49:58.066Z,100779.25
2023-02-02T03:53:00.913Z,100785.84
2023-02-02T03:56:04.094Z,100805.09
2023-02-02T03:59:07.169Z,100786.38
2023-02-02T04:02:09.939Z,100791.28
2023-02-02T04:05:12.778Z,100792.31
2023-02-02T04:08:15.782Z,100827.44
2023-02-02T04:11:19.405Z,100813.75
2023-02-02T04:14:22.198Z,100810.84
2023-02-02T04:17:25.044Z,100828.59
2023-02-02T04:20:27.849Z,100820.41
2023-02-02T04:23:31.369Z,100828.28
2023-02-02T04:26:34.242Z,100820.47
2023-02-02T04:29:37.179Z,100835.41
2023-02-02T04:32:40.183Z,100816.97
2023-02-02T04:35:43.947Z,100810.41
2023-02-02T04:38:50.179Z,100813.41
2023-02-02T04:41:52.969Z,100811.94
2023-02-02T04:44:55.658Z,100838.53
2023-02-02T04:47:58.450Z,100856.44
2023-02-02T04:51:03.012Z,100881.22
2023-02-02T04:54:07.345Z,100889.44
2023-02-02T04:57:10.098Z,100910.28
2023-02-02T05:00:18.677Z,100915.03
2023-02-02T05:03:21.555Z,100939.16
2023-02-02T05:06:24.667Z,100952.59
2023-02-02T05:09:27.587Z,100945.53
2023-02-02T05:12:30.793Z,100948.25
2023-02-02T05:15:33.835Z,100945.75
2023-02-02T05:18:36.681Z,100950.34
2023-02-02T05:21:39.453Z,100967.03
2023-02-02T05:24:42.220Z,100961.41
2023-02-02T05:27:46.603Z,100966.09
2023-02-02T05:30:49.769Z,100960.69
2023-02-02T05:33:52.913Z,100961.88
2023-02-02T05:36:55.689Z,100954.78
2023-02-02T05:39:58.589Z,100965.34
2023-02-02T05:43:01.407Z,100962.91
2023-02-02T05:46:08.948Z,100963.13
2023-02-02T05:49:14.158Z,100957.53
2023-02-02T05:52:21.713Z,100957.16
2023-02-02T05:55:24.788Z,100948.56
2023-02-02T05:58:28.484Z,100959.19
2023-02-02T06:01:31.440Z,100943.97
2023-02-02T06:04:34.292Z,100934.97
2023-02-02T06:07:37.094Z,100930.88
2023-02-02T06:10:42.665Z,100916.13
2023-02-02T06:13:46.354Z,100931.63
2023-02-02T06:16:49.111Z,100937.84
2023-02-02T06:19:51.872Z,100941.50
2023-02-02T06:22:54.878Z,100929.72
2023-02-02T06:25:57.773Z,100938.72
2023-02-02T06:29:00.805Z,100921.03
2023-02-02T06:32:04.185Z,100915.91
2023-02-02T06:35:08.169Z,100905.31
2023-02-02T06:38:11.542Z,100897.00
2023-02-02T06:41:14.319Z,100902.06
2023-02-02T06:44:19.402Z,100900.78
2023-02-02T06:47:22.264Z,100904.91
2023-02-02T06:50:25.156Z,100902.94
2023-02-02T06:53:28.422Z,100917.75
2023-02-02T06:56:31.248Z,100916.28
2023-02-02T06:59:43.583Z,100915.91
2023-02-02T07:02:47.731Z,100926.53
2023-02-02T07:05:51.056Z,100927.00
2023-02-02T07:09:03.488Z,100919.44
2023-02-02T07:12:10.347Z,100926.78
2023-02-02T07:15:18.187Z,100930.09
2023-02-02T07:18:21.306Z,100924.53
2023-02-02T07:21:26.657Z,100927.03
2023-02-02T07:24:29.595Z,100936.69
2023-02-02T07:27:34.271Z,100927.84
2023-02-02T07:30:37.746Z,100939.38
2023-02-02T07:33:42.561Z,100938.72
2023-02-02T07:36:45.698Z,100949.19
2023-02-02T07:39:48.573Z,100934.44
2023-02-02T07:42:51.463Z,100935.31
2023-02-02T07:45:54.435Z,100950.41
2023-02-02T07:48:58.084Z,100955.19
2023-02-02T07:52:01.032Z,100958.56
2023-02-02T07:55:14.387Z,100951.88
2023-02-02T07:58:17.884Z,100966.16
2023-02-02T08:01:23.228Z,100970.75
2023-02-02T08:04:26.297Z,100962.69
2023-02-02T08:07:29.367Z,100952.69
2023-02-02T08:10:32.185Z,100946.78
2023-02-02T08:13:35.017Z,100961.75
2023-02-02T08:16:37.935Z,100991.97
2023-02-02T08:19:40.685Z,101007.75
2023-02-02T08:22:43.675Z,100997.56
2023-02-02T08:25:46.535Z,101002.00
2023-02-02T08:29:03.021Z,100988.41
2023-02-02T08:32:06.033Z,100990.38
2023-02-02T08:35:09.214Z,100993.63
2023-02-02T08:38:12.200Z,100980.50
2023-02-02T08:41:18.567Z,101001.88
2023-02-02T08:44:21.307Z,100974.25
2023-02-02T08:47:30.001Z,100983.97
2023-02-02T08:50:34.417Z,100961.16
2023-02-02T08:53:38.034Z,100958.53
2023-02-02T08:56:40.917Z,100995.00
2023-02-02T08:59:43.836Z,100986.28
2023-02-02T09:02:51.198Z,100973.31
2023-02-02T09:05:56.494Z,100984.47
2023-02-02T09:09:01.980Z,100981.50
2023-02-02T09:12:05.032Z,100987.25
2023-02-02T09:15:08.129Z,101004.19
2023-02-02T09:18:11.126Z,100996.16
2023-02-02T09:21:16.246Z,101000.09
2023-02-02T09:24:19.284Z,100995.00
2023-02-02T09:27:22.517Z,101003.41
2023-02-02T09:30:25.388Z,100997.31
2023-02-02T09:33:28.294Z,100999.47
2023-02-02T09:36:32.327Z,100993.66
2023-02-02T09:39:35.348Z,101008.31
2023-02-02T09:42:44.274Z,101018.56
2023-02-02T09:45:58.657Z,101017.38
2023-02-02T09:49:11.472Z,101015.81
2023-02-02T09:52:20.822Z,101007.63
2023-02-02T09:55:30.139Z,101003.63
2023-02-02T09:59:02.147Z,101001.78
2023-02-02T10:02:22.362Z,101004.59
2023-02-02T10:05:30.305Z,101010.69
2023-02-02T10:08:46.007Z,101010.59
2023-02-02T10:12:17.480Z,101017.72
2023-02-02T10:15:39.857Z,101029.41
2023-02-02T10:18:56.605Z,101018.31
2023-02-02T10:22:20.065Z,101029.41
2023-02-02T10:25:26.653Z,101026.81
2023-02-02T10:28:44.950Z,101024.75
2023-02-02T10:32:06.727Z,101022.19
2023-02-02T10:35:27.610Z,101009.28
2023-02-02T10:38:53.162Z,101000.84
2023-02-02T10:42:34.271Z,101000.75
2023-02-02T10:45:39.512Z,100999.72
2023-02-02T10:48:46.630Z,100997.41
2023-02-02T10:52:08.256Z,100993.53
2023-02-02T10:55:14.292Z,100991.50
2023-02-02T10:58:39.173Z,100990.72
2023-02-02T11:01:43.324Z,100993.19
2023-02-02T11:05:07.112Z,100993.94
2023-02-02T11:08:13.894Z,100991.66
2023-02-02T11:11:38.610Z,100992.84
2023-02-02T11:14:47.889Z,100990.66
2023-02-02T11:17:51.116Z,100990.38
2023-02-02T11:20:54.997Z,100988.38
2023-02-02T11:24:23.988Z,101001.16
2023-02-02T11:27:33.511Z,100989.06
2023-02-02T11:30:38.534Z,100992.88
2023-02-02T11:33:41.324Z,101006.47
2023-02-02T11:37:00.431Z,100988.03
2023-02-02T11:40:30.181Z,100984.34
2023-02-02T11:43:52.535Z,100973.97
2023-02-02T11:46:56.947Z,100985.09
2023-02-02T11:50:02.726Z,100986.28
2023-02-02T11:53:07.064Z,100981.56
2023-02-02T11:56:19.240Z,100978.09
2023-02-02T11:59:34.966Z,100977.09
2023-02-02T12:02:45.361Z,100980.75
2023-02-02T12:05:50.093Z,100975.50
2023-02-02T12:08:58.499Z,100975.88
2023-02-02T12:12:30.934Z,100988.38
2023-02-02T12:15:55.459Z,100982.88
2023-02-02T12:19:24.652Z,100979.19
2023-02-02T12:22:36.370Z,100975.59
2023-02-02T12:26:27.362Z,100964.81
2023-02-02T12:29:59.347Z,100981.59
2023-02-02T12:33:08.416Z,100983.94
2023-02-02T12:36:14.133Z,100985.09
2023-02-02T12:39:30.564Z,100973.63
2023-02-02T12:42:51.552Z,100978.41
2023-02-02T12:46:21.632Z,100981.59
2023-02-02T12:50:03.019Z,100968.34
2023-02-02T12:53:30.712Z,100977.31
2023-02-02T12:56:40.244Z,100980.84
2023-02-02T13:00:25.012Z,100987.91
2023-02-02T13:03:35.158Z,100985.88
2023-02-02T13:06:53.989Z,100979.41
2023-02-02T13:10:28.653Z,100985.88
2023-02-02T13:13:37.700Z,100980.81
2023-02-02T13:16:48.614Z,100984.25
2023-02-02T13:19:56.428Z,100979.31
2023-02-02T13:23:03.536Z,100970.28
2023-02-02T13:26:20.158Z,100975.75
2023-02-02T13:29:50.737Z,100979.75
2023-02-02T13:32:58.327Z,100980.16
2023-02-02T13:36:06.307Z,100979.56
2023-02-02T13:39:45.243Z,100990.34
2023-02-02T13:43:04.904Z,100987.84
2023-02-02T13:46:24.123Z,100987.66
2023-02-02T13:49:44.893Z,100985.66
2023-02-02T13:53:02.851Z,100987.50
2023-02-02T13:56:49.100Z,100995.75
2023-02-02T13:59:55.286Z,100993.28
2023-02-02T14:03:03.469Z,100998.81
2023-02-02T14:06:17.109Z,101006.34
2023-02-02T14:09:20.415Z,101011.00
2023-02-02T14:12:33.183Z,101017.47
2023-02-02T14:15:44.699Z,101024.06
2023-02-02T14:18:51.048Z,101025.88
2023-02-02T14:22:01.479Z,101017.78
2023-02-02T14:25:24.897Z,101020.28
2023-02-02T14:28:43.463Z,101017.22
2023-02-02T14:31:55.238Z,101022.34
2023-02-02T14:35:00.420Z,101025.69
2023-02-02T14:38:14.708Z,101018.53
2023-02-02T14:42:06.669Z,101008.66
2023-02-02T14:45:21.989Z,101020.38
2023-02-02T14:48:25.797Z,101015.50
2023-02-02T14:51:32.199Z,101014.47
2023-02-02T14:54:40.105Z,101017.97
2023-02-02T14:57:43.051Z,101018.69
2023-02-02T15:01:05.674Z,101026.78
2023-02-02T15:04:21.216Z,101028.78
2023-02-02T15:07:23.894Z,101024.84
2023-02-02T15:10:54.130Z,101023.69
2023-02-02T15:14:07.192Z,101023.69
2023-02-02T15:17:31.271Z,101031.31
2023-02-02T15:20:44.805Z,101038.75
2023-02-02T15:23:47.939Z,101031.19
2023-02-02T15:26:54.709Z,101036.09
2023-02-02T15:30:03.849Z,101038.59
2023-02-02T15:33:28.124Z,101042.53
2023-02-02T15:36:37.768Z,101042.69
2023-02-02T15:39:43.524Z,101055.22
2023-02-02T15:42:54.243Z,101041.56
2023-02-02T15:46:04.879Z,101057.50
2023-02-02T15:49:36.044Z,101054.72
2023-02-02T15:52:47.471Z,101065.25
2023-02-02T15:55:50.751Z,101070.50
2023-02-02T15:58:56.347Z,101071.47
2023-02-02T16:02:11.749Z,101075.91
2023-02-02T16:05:36.728Z,101076.72
2023-02-02T16:08:41.224Z,101074.91
2023-02-02T16:11:45.911Z,101077.03
2023-02-02T16:14:54.346Z,101085.88
2023-02-02T16:18:00.735Z,101087.19
2023-02-02T16:21:16.239Z,101089.66
2023-02-02T16:24:41.810Z,101092.78
2023-02-02T16:27:47.558Z,101102.00
2023-02-02T16:30:52.597Z,101096.41
2023-02-02T16:33:57.161Z,101098.69
2023-02-02T16:37:15.311Z,101101.44
2023-02-02T16:40:29.731Z,101107.19
2023-02-02T16:43:33.730Z,101107.38
2023-02-02T16:46:44.342Z,101114.56
2023-02-02T16:49:47.232Z,101109.31
2023-02-02T16:53:03.658Z,101120.03
2023-02-02T16:56:07.932Z,101113.78
2023-02-02T16:59:25.539Z,101124.47
2023-02-02T17:02:41.164Z,101133.97
2023-02-02T17:05:54.540Z,101127.25
2023-02-02T17:08:57.351Z,101139.41
2023-02-02T17:12:32.135Z,101140.91
2023-02-02T17:15:37.143Z,101140.38
2023-02-02T17:18:40.397Z,101142.38
2023-02-02T17:21:43.503Z,101146.75
2023-02-02T17:24:48.302Z,101148.41
2023-02-02T17:27:51.421Z,101145.91
2023-02-02T17:31:00.674Z,101147.69
2023-02-02T17:34:04.436Z,101146.34
2023-02-02T17:37:07.730Z,101152.81
2023-02-02T17:40:18.214Z,101155.75
2023-02-02T17:43:21.397Z,101151.94
2023-02-02T17:46:24.535Z,101149.31
2023-02-02T17:49:27.436Z,101157.03
2023-02-02T17:52:30.291Z,101150.66
2023-02-02T17:55:38.954Z,101161.78
2023-02-02T17:58:42.396Z,101169.34
2023-02-02T18:01:46.506Z,101181.16
2023-02-02T18:04:49.296Z,101180.66
2023-02-02T18:07:55.014Z,101179.13
2023-02-02T18:10:59.573Z,101183.28
2023-02-02T18:14:02.622Z,101190.31
2023-02-02T18:17:08.368Z,101205.94
2023-02-02T18:20:15.231Z,101207.06
2023-02-02T18:23:19.404Z,101209.81
2023-02-02T18:26:23.296Z,101208.09
2023-02-02T18:29:26.376Z,101201.63
2023-02-02T18:32:29.496Z,101208.72
2023-02-02T18:35:32.245Z,101214.63
2023-02-02T18:38:35.085Z,101226.94
2023-02-02T18:41:38.162Z,101232.34
2023-02-02T18:44:42.944Z,101231.16
2023-02-02T18:47:45.858Z,101220.94
2023-02-02T18:50:48.977Z,101232.88
2023-02-02T18:53:51.956Z,101246.53
2023-02-02T18:56:54.919Z,101245.25
2023-02-02T18:59:57.755Z,101234.09
2023-02-02T19:03:00.828Z,101229.94
2023-02-02T19:06:23.357Z,101226.88
2023-02-02T19:09:26.414Z,101226.00
2023-02-02T19:12:29.458Z,101225.94
2023-02-02T19:15:39.446Z,101239.56
2023-02-02T19:18:44.142Z,101223.97
2023-02-02T19:21:47.128Z,101229.34
2023-02-02T19:24:52.967Z,101251.28
2023-02-02T19:27:55.822Z,101262.66
2023-02-02T19:31:01.572Z,101263.56
2023-02-02T19:34:13.687Z,101276.88
2023-02-02T19:37:28.676Z,101276.34
2023-02-02T19:40:31.712Z,101276.97
2023-02-02T19:43:36.635Z,101285.03
2023-02-02T19:46:43.898Z,101285.22
2023-02-02T19:49:47.048Z,101281.50
2023-02-02T19:52:51.117Z,101280.00
2023-02-02T19:55:54.755Z,101293.34
2023-02-02T19:58:59.168Z,101296.16
2023-02-02T20:02:41.549Z,101299.66
2023-02-02T20:05:47.494Z,101309.06
2023-02-02T20:08:51.616Z,101314.84
2023-02-02T20:11:56.683Z,101321.38
2023-02-02T20:14:59.707Z,101325.97
2023-02-02T20:18:14.565Z,101336.97
2023-02-02T20:21:34.491Z,101348.56
2023-02-02T20:24:43.190Z,101348.56
2023-02-02T20:27:46.308Z,101341.97
2023-02-02T20:30:49.454Z,101337.09
2023-02-02T20:33:55.492Z,101342.47
2023-02-02T20:37:14.180Z,101341.38
2023-02-02T20:40:20.153Z,101345.94
2023-02-02T20:43:23.237Z,101352.41
2023-02-02T20:46:26.104Z,101364.00
2023-02-02T20:49:32.015Z,101366.63
2023-02-02T20:52:35.573Z,101375.28
2023-02-02T20:55:38.531Z,101375.03
2023-02-02T20:58:41.347Z,101374.47
2023-02-02T21:01:44.548Z,101382.63
2023-02-02T21:04:48.839Z,101382.91
2023-02-02T21:07:54.998Z,101386.50
2023-02-02T21:10:57.794Z,101387.84
2023-02-02T21:14:01.036Z,101381.38
2023-02-02T21:17:14.384Z,101385.66
2023-02-02T21:20:18.183Z,101393.78
2023-02-02T21:23:22.032Z,101391.44
2023-02-02T21:26:29.990Z,101400.69
2023-02-02T21:29:33.497Z,101404.81
2023-02-02T21:32:36.378Z,101402.47
2023-02-02T21:35:39.252Z,101398.47
2023-02-02T21:38:42.143Z,101408.53
2023-02-02T21:41:45.433Z,101410.50
2023-02-02T21:44:54.348Z,101414.47
2023-02-02T21:48:05.319Z,101431.13
2023-02-02T21:51:29.177Z,101431.69
2023-02-02T21:54:37.714Z,101442.69
2023-02-02T21:57:42.333Z,101443.38
2023-02-02T22:00:45.748Z,101442.81
2023-02-02T22:03:50.113Z,101448.06
2023-02-02T22:07:09.519Z,101453.41
2023-02-02T22:10:34.148Z,101456.69
2023-02-02T22:13:36.843Z,101460.13
2023-02-02T22:16:44.096Z,101462.59
2023-02-02T22:19:46.968Z,101470.19
2023-02-02T22:22:51.537Z,101463.31
2023-02-02T22:25:56.413Z,101472.78
2023-02-02T22:28:59.488Z,101473.13
2023-02-02T22:32:02.495Z,101482.88
2023-02-02T22:35:05.733Z,101491.13
2023-02-02T22:38:09.618Z,101495.41
2023-02-02T22:41:12.458Z,101501.56
2023-02-02T22:44:15.511Z,101486.72
2023-02-02T22:47:18.213Z,101497.63
2023-02-02T22:50:26.794Z,101499.38
2023-02-02T22:53:29.771Z,101499.69
2023-02-02T22:56:32.696Z,101504.53
2023-02-02T22:59:35.890Z,101503.25
2023-02-02T23:02:40.916Z,101505.25
2023-02-02T23:05:43.792Z,101504.41
2023-02-02T23:08:46.838Z,101503.72
2023-02-02T23:11:49.965Z,101497.56
2023-02-02T23:14:52.838Z,101501.94
2023-02-02T23:17:55.654Z,101496.91
2023-02-02T23:20:58.729Z,101510.00
2023-02-02T23:24:01.612Z,101501.75
2023-02-02T23:27:04.927Z,101514.56
2023-02-02T23:30:09.572Z,101511.72
2023-02-02T23:33:12.342Z,101518.41
2023-02-02T23:36:15.213Z,101524.38
2023-02-02T23:39:18.110Z,101532.34
2023-02-02T23:42:21.205Z,101540.00
2023-02-02T23:45:24.078Z,101541.84
2023-02-02T23:48:26.969Z,101547.63
2023-02-02T23:51:30.012Z,101546.31
2023-02-02T23:54:33.845Z,101552.06
2023-02-02T23:57:37.891Z,101556.84
